NCAR-RAP Real-Time Weather Data

Output produced by METARs form (23 January 2018  15:41 UTC)
found at http://weather.rap.ucar.edu/surface/
 
RJAH 231500Z 21004KT 9999 FEW040 00/M10 Q1006
RJAH 231400Z 25007KT 9999 FEW040 02/M10 Q1006
RJAH 231300Z 27006KT 9999 FEW040 00/M01 Q1005
RJAH 231200Z 15005KT 9999 FEW040 01/M02 Q1005
RJAH 231100Z 35009KT 9999 FEW040 02/M02 Q1004
RJAH 231000Z 29005KT 260V360 9999 FEW040 03/M04 Q1004
RJAH 230900Z 26006KT 9999 FEW020 05/M02 Q1003
RJAH 230800Z 23005KT 210V290 9999 FEW020 05/M02 Q1002
RJAH 230700Z 24010KT 9999 FEW020 06/M01 Q1001
RJAH 230600Z 22008KT 9999 FEW020 05/00 Q1001
RJAH 230500Z 28006KT 250V310 9999 FEW020 06/01 Q1000
RJAH 230400Z 28005KT 230V290 9999 FEW020 05/00 Q1000
RJAH 230300Z VRB01KT 9999 FEW020 04/M02 Q1001
RJAH 230200Z VRB02KT 9999 FEW025 02/M01 Q1003
RJAH 230100Z 21005KT 9999 FEW030 00/M00 Q1005
RJAH 230000Z 20003KT 150V230 9999 MIFG FEW001 M01/M01 Q1006
RJAH 222343Z 19003KT 9999 R21/1000N MIFG FEW001 M02/M02 Q1006 RMK 1ST001 A2972 VIS W-NW 1400M
RJAH 222327Z 18003KT 9999 R21/0200V1600D MIFG FEW001 M01/M02 Q1006 RMK 1ST001 A2972 R0350 VIS SW-NW 1200M
RJAH 222300Z 18004KT 9999 R03/1000VP1800U PRFG MIFG FEW001 M01/M02 Q1006
RJAH 222246Z 18004KT 9999 R03/0350V1100D PRFG MIFG FEW000 M02/M02 Q1006 RMK 1ST000 A2973 R0550 FG BANK 800M SW-NW
RJAH 222239Z 19004KT 9999 R03/0350V1800D PRFG MIFG FEW030 M02/M02 Q1006 RMK 1SC030 A2973 R0800 FG BANK 800M SW-NW
RJAH 222235Z 20003KT 9999 R03/0800VP1800D PRFG MIFG FEW030 M03/M03 Q1007 RMK 1SC030 A2974 R1500 FG BANK SW-NW 1000M
RJAH 222200Z 25002KT 9999 PRFG MIFG FEW030 M04/M04 Q1006
RJAH 222100Z 27003KT 230V300 9999 MIFG FEW030 SCT070 M03/M04 Q1006
RJAH 222022Z 22004KT 9999 FEW030 SCT070 M02/M02 Q1006 RMK 2SC030 3AC070 A2972
RJAH 222000Z 24005KT 9999 SCT030 BKN070 M02/M02 Q1006
RJAH 221900Z 26004KT 210V290 9999 SCT040 BKN070 M00/M02 Q1006
RJAH 221843Z 28004KT 250V330 9999 SCT040 BKN070 M00/M01 Q1005 RMK 3SC040 7AC070 A2970
RJAH 221800Z 33005KT 9999 -SN FEW020 BKN040 OVC070 M00/M01 Q1005
RJAH 221700Z 33009KT 9999 -SN FEW020 BKN040 OVC070 00/M02 Q1005
RJAH 221600Z 35015KT 9999 -SN SCT020 BKN040 OVC060 00/M02 Q1005
RJAH 221500Z 35014KT 9999 -SN SCT008 BKN020 OVC040 00/M02 Q1005
RJAH 221449Z 35014KT 9999 -SN SCT008 BKN020 OVC040 00/M02 Q1005 RMK 3ST008 6SC020 8SC040 A2970 MAX WIND 19KT
RJAH 221422Z 35015KT 5000 -SN BR FEW005 SCT008 OVC015 M00/M01 Q1005 RMK 1ST005 4ST008 8SC015 A2970 MAX WIND 21KT VIS S-W 8KM
RJAH 221400Z 34020G33KT 1800 -SN BR FEW004 BKN006 OVC015 M00/M01 Q1006
RJAH 221351Z 01017KT 1800 -SN BR FEW004 BKN006 OVC015 M01/M01 Q1005 RMK 1ST004 6ST006 8SC015 A2969 MAX WIND 24KT VIS SW-W 2500M
RJAH 221333Z 33020KT 0800 R03/1800U SN FEW002 BKN004 OVC012 M00/M01 Q1006 RMK 1ST002 6ST004 8SC012 A2972 MAX WIND 28KT VIS SW-W 1400M
RJAH 221300Z 01016KT 0500 R03/1200U SN VV002 M00/M01 Q1007
RJAH 221200Z 36017KT 0200 R03/0900V1100U SN VV002 M01/M01 Q1008
RJAH 221120Z 35017KT 0200 R03/0700V1000D SN VV002 M01/M01 Q1008 RMK A2979 R0900 MAX WIND 24KT
RJAH 221100Z 33016KT 0300 R03/0900V1200U SN VV002 M01/M01 Q1009
RJAH 221045Z 03017KT 0300 R03/0900V1600D SN VV003 M01/M01 Q1008 RMK A2977 R1200
RJAH 221041Z 02015KT 0400 R03/1000VP1800D SN VV003 M01/M01 Q1009 RMK A2980 R1600
RJAH 221000Z 01012KT 0600 R03/P1800N SN SCT002 BKN003 OVC005 M00/M01 Q1010
RJAH 220900Z 35015KT 0600 R03/P1800N SN SCT002 BKN003 OVC005 M01/M01 Q1012
RJAH 220846Z 35015KT 0600 R03/P1800N SN SCT002 BKN003 OVC005 M01/M01 Q1012 RMK 3ST002 6ST003 8ST005 A2989 MAX WIND 20KT VIS SW-W 800M
RJAH 220800Z 35013KT 0400 R03/P1800U SN VV003 M00/M01 Q1013
RJAH 220716Z 01016KT 0400 R03/1300VP1800D SN VV003 M00/M01 Q1013 RMK A2992 R1400 MAX WIND 22KT
RJAH 220711Z 01015KT 0500 R03/1700D SN VV003 M00/M01 Q1013 RMK A2993 MAX WIND 22KT
RJAH 220706Z 01014KT 0600 R03/P1800N SN FEW002 BKN003 OVC006 00/M00 Q1013 RMK 2ST002 6ST003 8ST006 A2993 MAX WIND 22KT VIS NW-NE 400M
RJAH 220700Z 01015KT 0800 R03/P1800N SN FEW002 BKN003 OVC006 00/M00 Q1014
RJAH 220616Z 03015KT 0800 R03/P1800U SN FEW002 BKN003 OVC006 00/M00 Q1014 RMK 2ST002 6ST003 8ST006 A2997 MAX WIND 20KT VIS NW-NE 600M
RJAH 220600Z 04015KT 0800 R03/1800D SN FEW002 BKN004 OVC008 00/M00 Q1015
RJAH 220547Z 04015KT 0800 R03/P1800N SN FEW002 BKN004 OVC008 00/M00 Q1015 RMK 2ST002 6ST004 8ST008 A2998 MAX WIND 21KT VIS NW-NE 600M
RJAH 220544Z 04016KT 1000 R03/P1800N -SN FEW002 BKN004 OVC008 01/M00 Q1015 RMK 2ST002 6ST004 8ST008 A2998 MAX WIND 24KT VIS NW-NE 800M
RJAH 220537Z 04016KT 1200 R03/P1800N -SN FEW002 BKN004 OVC008 00/M00 Q1015 RMK 1ST002 6ST004 8ST008 A2998 MAX WIND 24KT VIS NW-N 1000M
RJAH 220521Z 04017G27KT 1400 R03/P1800N -SN FEW002 BKN004 OVC008 00/M00 Q1015 RMK 1ST002 5ST004 8ST008 A2999 VIS E 1200M SW-W 2000M
RJAH 220500Z 04015G25KT 1000 R03/P1800N -SN FEW002 BKN004 OVC008 00/M00 Q1016
RJAH 220452Z 04015G25KT 1000 R03/P1800N -SN FEW002 BKN004 OVC008 00/M00 Q1016 RMK 2ST002 6ST004 8ST008 A3002 VIS W-N 800M
RJAH 220446Z 04015KT 1200 R03/P1800N -SN FEW003 BKN005 OVC010 00/M00 Q1016 RMK 2ST003 6ST005 8ST010 A3002 MAX WIND 19KT VIS W-N 1000M
RJAH 220443Z 04015KT 1400 R03/P1800N -SN FEW003 BKN005 OVC010 00/M00 Q1016 RMK 2ST003 6ST005 8ST010 A3002 MAX WIND 21KT VIS W-N 1000M
RJAH 220431Z 04014KT 1600 -SN FEW003 BKN006 OVC010 01/M00 Q1017 RMK 2ST003 6ST006 8ST010 A3003 MAX WIND 21KT VIS W-N 1200M
RJAH 220427Z 04013KT 1800 -SN FEW004 BKN006 OVC010 01/M00 Q1017 RMK 2ST004 6ST006 8ST010 A3003 MAX WIND 20KT VIS W-N 1600M
RJAH 220423Z 04014KT 2000 -SN FEW004 BKN006 OVC010 01/M00 Q1017 RMK 2ST004 6ST006 8ST010 A3004 MAX WIND 19KT VIS SW-W 2500M
RJAH 220400Z 05013KT 1000 R03/P1800N -SN FEW004 BKN006 OVC010 01/M00 Q1017
RJAH 220352Z 05014KT 1200 R03/P1800N -SN FEW004 BKN006 OVC010 01/M00 Q1017 RMK 2ST004 6ST006 8ST010 A3005 MAX WIND 19KT VIS S-SW 1000M
RJAH 220333Z 05015KT 0900 R03/P1800N SN FEW005 BKN006 OVC010 01/M00 Q1017 RMK 2ST005 6ST006 8ST010 A3004 MAX WIND 22KT VIS S-W 600M FCST AMD 0309 BECMG 0303 1500 -SN TEMPO 0309 1000 -SN SCT002ST BKN003ST
RJAH 220321Z 05015KT 1200 R03/P1800N -SN BR FEW005 BKN006 OVC010 01/M00 Q1017 RMK 2ST005 6ST006 8ST010 A3005 MAX WIND 22KT VIS S-W 1000M
RJAH 220317Z 04015KT 1500 R03/P1800N -SN BR FEW005 BKN006 OVC010 01/M01 Q1017 RMK 1ST005 5ST006 8ST010 A3006 MAX WIND 22KT VIS S-W 1200M
RJAH 220315Z 05014KT 2500 -SN BR SCT006 BKN010 OVC020 01/M00 Q1018 RMK 3ST006 6ST010 8SC020 A3006 MAX WIND 22KT VIS S-W 1500M
RJAH 220300Z 04013KT 3000 -SN BR FEW008 BKN012 OVC020 02/M01 Q1018
RJAH 220252Z 04013KT 4000 -SN BR FEW008 SCT012 OVC020 02/M01 Q1018 RMK 2ST008 3SC012 8SC020 A3009 MAX WIND 17KT VIS S-W 3000M FCST AMD 0208 TEMPO 0205 03015G25KT 1200 -SN SCT002ST BKN004ST TEMPO 0508 02018G30KT 1200 -SN SCT002ST BKN004ST
RJAH 220207Z 04015KT 6000 -RASN FEW008 OVC020 03/M01 Q1019 RMK 2ST008 8SC020 A3011 MAX WIND 23KT VIS W-NW 4000M
RJAH 220200Z 03014KT 8000 -RASN FEW010 OVC025 03/M02 Q1019
RJAH 220138Z 04014KT 9999 -SNRA FEW010 OVC025 04/M04 Q1020 RMK 1ST010 8SC025 A3013 MAX WIND 23KT
RJAH 220104Z 04014KT 9999 -SN FEW020 BKN030 03/M05 Q1020 RMK 1SC020 7SC030 A3014 MAX WIND 20KT
RJAH 220100Z 04013KT 9999 FEW020 BKN030 04/M05 Q1020
RJAH 220000Z 03011KT 9999 FEW020 BKN030 BKN150 02/M06 Q1021
RJAH 212339Z 02009KT 9999 FEW005 BKN030 BKN150 02/M06 Q1020 RMK 1ST005 6SC030 7AC150 A3015
RJAH 212322Z 01008KT 9999 -RA FEW005 BKN030 BKN150 01/M06 Q1020 RMK 1ST005 6SC030 7AC150 A3014
RJAH 212300Z 36007KT 9999 FEW005 BKN040 BKN160 00/M06 Q1021
RJAH 212200Z 02005KT 9999 FEW002 BKN040 BKN160 M02/M06 Q1020
RJAH 212100Z 01004KT 9999 FEW015 BKN040 BKN160 M02/M07 Q1020
RJAH 212000Z 02006KT 9999 FEW015 BKN160 M02/M06 Q1019
RJAH 211900Z 01005KT 9999 FEW015 BKN160 M01/M06 Q1018
RJAH 211824Z 02006KT 9999 FEW015 BKN180 M02/M06 Q1018 RMK 1SC015 5AC180 A3008
RJAH 211800Z 01005KT 9999 FEW040 SCT180 BKN/// M01/M06 Q1019
RJAH 211700Z 36004KT 9999 FEW040 SCT/// M01/M06 Q1019
RJAH 211600Z 01004KT 9999 FEW030 SCT/// 00/M06 Q1018
RJAH 211500Z 35004KT 9999 FEW030 SCT040 BKN/// 03/M05 Q1018
RJAH 211400Z 03005KT 9999 FEW030 BKN/// 03/M04 Q1018
RJAH 211336Z 03009KT 9999 FEW025 BKN/// 03/M04 Q1017 RMK 2CU025 A3005
RJAH 211300Z 02008KT 9999 FEW020 BKN025 04/M03 Q1018
RJAH 211248Z 01009KT 9999 FEW020 BKN025 04/M03 Q1018 RMK 1CU020 5CU025 A3007
RJAH 211220Z 01009KT 9999 FEW020 SCT025 04/M03 Q1017 RMK 1CU020 3CU025 A3006
RJAH 211200Z 36009KT 9999 FEW020 BKN025 BKN070 05/M01 Q1017
RJAH 211146Z 36008KT 9999 FEW020 BKN025 BKN070 06/M01 Q1017 RMK 2CU020 5CU025 7AC070 A3006
RJAH 211125Z 35010KT 9999 FEW025 SCT030 BKN080 05/02 Q1017 RMK 2CU025 3CU030 5AC080 A3005
RJAH 211100Z 34003KT 9999 FEW030 02/00 Q1016
RJAH 211000Z 00000KT 9999 FEW030 04/03 Q1015
RJAH 210900Z VRB02KT 9999 FEW030 04/00 Q1014
RJAH 210800Z 10004KT 9999 FEW030 09/02 Q1014
RJAH 210700Z 16006KT 9999 FEW030 10/02 Q1013
RJAH 210600Z 16009KT 9999 FEW025 11/01 Q1013
RJAH 210527Z 18007KT 9999 FEW025 SCT030 11/01 Q1013 RMK 1CU025 3CU030 A2994
RJAH 210500Z 21005KT 180V250 9999 FEW025 BKN030 11/01 Q1013
RJAH 210400Z 15004KT 090V200 9999 FEW025 SCT030 BKN050 10/01 Q1014